Time;durP1;ratioP1;P1;durP2;ratioP2;P2;SDS_P1;SDS_P2;PMS_P1;PMS_P2;Temp;Humidity;BMP_temperature;BMP_pressure;BME280_temperature;BME280_humidity;BME280_pressure;Samples;Min_cycle;Max_cycle;Signal;HPM_P1;HPM_P2
2024/01/23 05:01:42;;;;;;;0.87;0.77;;;4.60;97.30;;;;;;5482145;23;20496;-92
2024/01/23 05:04:08;;;;;;;1.30;1.20;;;4.60;97.30;;;;;;5004314;28;20813;-93
2024/01/23 05:06:34;;;;;;;0.90;0.80;;;4.60;97.30;;;;;;4991756;28;20329;-94
2024/01/23 05:09:00;;;;;;;0.90;0.80;;;4.60;97.30;;;;;;4992535;28;20962;-91
2024/01/23 05:11:26;;;;;;;1.00;0.90;;;4.60;97.30;;;;;;5013198;28;20531;-91
2024/01/23 05:13:51;;;;;;;0.90;0.80;;;4.60;97.30;;;;;;4993486;28;20208;-93
2024/01/23 05:16:17;;;;;;;1.30;1.27;;;4.60;97.30;;;;;;4991946;28;20178;-92
2024/01/23 05:18:42;;;;;;;0.90;0.80;;;4.60;97.30;;;;;;4987661;28;20272;-92
2024/01/23 05:21:08;;;;;;;0.90;0.80;;;4.60;97.30;;;;;;4991985;28;20214;-93
2024/01/23 05:23:34;;;;;;;0.90;0.80;;;4.60;97.30;;;;;;4992234;28;20221;-93
2024/01/23 05:25:59;;;;;;;1.33;1.23;;;4.60;97.30;;;;;;4995729;28;20205;-92
2024/01/23 05:28:25;;;;;;;3.90;1.90;;;4.50;97.30;;;;;;4994878;28;20264;-93
2024/01/23 05:30:50;;;;;;;0.90;0.80;;;4.50;97.30;;;;;;4990354;28;20297;-90
2024/01/23 05:33:16;;;;;;;9.30;1.10;;;4.50;97.30;;;;;;4990744;28;20209;-91
2024/01/23 05:35:41;;;;;;;1.00;0.90;;;4.50;97.30;;;;;;4992085;28;20533;-92
2024/01/23 05:38:07;;;;;;;1.10;1.00;;;4.60;97.30;;;;;;4990640;28;20190;-89
2024/01/23 05:40:32;;;;;;;1.97;1.30;;;4.60;97.30;;;;;;4994708;28;20272;-93
2024/01/23 05:42:58;;;;;;;0.90;0.80;;;4.60;97.30;;;;;;4991561;28;20193;-93
2024/01/23 05:45:24;;;;;;;1.10;1.00;;;4.60;97.30;;;;;;4991530;28;20421;-92
2024/01/23 05:47:49;;;;;;;2.53;1.17;;;4.60;97.30;;;;;;4992534;28;20185;-92
2024/01/23 05:50:15;;;;;;;0.90;0.80;;;4.70;97.30;;;;;;4992335;28;20193;-93
2024/01/23 05:52:41;;;;;;;1.00;0.90;;;4.60;97.30;;;;;;4991590;28;20198;-93
2024/01/23 05:55:06;;;;;;;2.03;1.23;;;4.60;97.30;;;;;;4992310;28;20516;-92
2024/01/23 05:57:32;;;;;;;1.00;0.90;;;4.60;97.30;;;;;;4992055;28;20178;-92
2024/01/23 05:59:59;;;;;;;18.53;1.27;;;4.60;97.30;;;;;;4994433;28;20277;-92
2024/01/23 06:02:25;;;;;;;1.97;1.20;;;4.50;97.30;;;;;;4995481;28;20232;-92
2024/01/23 06:04:50;;;;;;;0.80;0.70;;;4.50;97.30;;;;;;4995427;28;20511;-92
2024/01/23 06:07:16;;;;;;;0.90;0.80;;;4.50;97.30;;;;;;4995577;28;20710;-91
2024/01/23 06:09:42;;;;;;;0.90;0.80;;;4.40;97.30;;;;;;4995232;28;20181;-92
2024/01/23 06:12:08;;;;;;;0.97;0.87;;;4.40;97.30;;;;;;5000814;28;20213;-91
2024/01/23 06:14:33;;;;;;;0.90;0.80;;;4.40;97.30;;;;;;4999901;28;20799;-92
2024/01/23 06:16:59;;;;;;;1.00;0.90;;;4.40;97.30;;;;;;4999601;28;20349;-92
2024/01/23 06:19:24;;;;;;;0.90;0.80;;;4.40;97.30;;;;;;4997715;28;20177;-92
2024/01/23 06:21:50;;;;;;;1.00;0.90;;;4.40;97.30;;;;;;4994896;28;20202;-92
2024/01/23 06:24:15;;;;;;;0.90;0.80;;;4.50;97.30;;;;;;4994678;28;20706;-93
2024/01/23 06:26:41;;;;;;;0.80;0.70;;;4.50;97.30;;;;;;4999532;28;20208;-93
2024/01/23 06:29:06;;;;;;;0.90;0.80;;;4.60;97.30;;;;;;4994892;28;20173;-91
2024/01/23 06:31:32;;;;;;;0.90;0.80;;;4.70;97.30;;;;;;4994714;28;20189;-92
2024/01/23 06:33:57;;;;;;;0.90;0.80;;;4.80;97.30;;;;;;4997864;28;20204;-92
2024/01/23 06:36:23;;;;;;;0.90;0.80;;;4.80;97.30;;;;;;4995186;28;20253;-92
2024/01/23 06:38:48;;;;;;;0.90;0.80;;;4.90;97.30;;;;;;4998828;28;20186;-92
2024/01/23 06:41:14;;;;;;;1.47;1.37;;;4.90;97.30;;;;;;4994790;28;20202;-92
2024/01/23 06:43:40;;;;;;;1.10;1.00;;;4.90;97.30;;;;;;4998346;28;20196;-92
2024/01/23 06:46:05;;;;;;;1.40;1.30;;;4.90;97.30;;;;;;4994688;28;20487;-90
2024/01/23 06:48:31;;;;;;;1.40;1.30;;;5.00;97.30;;;;;;4995806;28;20213;-93
2024/01/23 06:50:57;;;;;;;0.90;0.80;;;5.00;97.30;;;;;;4994389;28;20201;-92
2024/01/23 06:53:22;;;;;;;1.20;1.10;;;5.00;97.30;;;;;;4998721;28;20424;-92
2024/01/23 06:55:48;;;;;;;2.90;1.23;;;5.00;97.30;;;;;;5000693;28;20194;-93
2024/01/23 06:58:14;;;;;;;2.17;1.63;;;5.00;97.30;;;;;;5001852;28;20190;-92
2024/01/23 07:00:39;;;;;;;1.00;0.90;;;5.10;97.30;;;;;;4998717;28;20216;-92
2024/01/23 07:03:06;;;;;;;0.90;0.80;;;5.10;97.30;;;;;;4998447;28;20190;-91
2024/01/23 07:05:32;;;;;;;0.90;0.80;;;5.10;97.30;;;;;;4995164;28;20205;-94
2024/01/23 07:07:57;;;;;;;0.80;0.70;;;5.10;97.30;;;;;;4994779;28;20409;-92
2024/01/23 07:10:22;;;;;;;3.47;1.43;;;5.10;97.30;;;;;;4995564;28;20186;-91
2024/01/23 07:12:48;;;;;;;0.90;0.80;;;5.00;97.30;;;;;;4998146;28;20225;-92
2024/01/23 07:15:13;;;;;;;1.47;1.37;;;5.10;97.30;;;;;;4996792;28;20250;-91
2024/01/23 07:17:39;;;;;;;1.20;0.93;;;5.00;97.30;;;;;;4996912;28;20190;-92
2024/01/23 07:20:09;;;;;;;0.80;0.70;;;5.00;97.30;;;;;;5002972;28;20343;-92
2024/01/23 07:22:34;;;;;;;1.10;1.00;;;5.00;97.30;;;;;;4992709;28;20680;-91
2024/01/23 07:25:03;;;;;;;1.87;1.77;;;5.00;97.30;;;;;;4993781;28;20428;-91
2024/01/23 07:27:29;;;;;;;0.90;0.80;;;4.90;97.30;;;;;;4993848;28;20205;-91
2024/01/23 07:29:55;;;;;;;1.67;1.47;;;4.90;97.30;;;;;;4994105;28;20431;-91
2024/01/23 07:32:20;;;;;;;1.10;1.00;;;4.90;97.30;;;;;;5035050;23;20494;-87
2024/01/23 07:34:46;;;;;;;11.40;1.23;;;5.00;97.30;;;;;;5030877;28;20185;-88
2024/01/23 07:37:11;;;;;;;0.90;0.80;;;4.90;97.30;;;;;;5030808;28;20184;-87
2024/01/23 07:39:37;;;;;;;0.93;0.83;;;4.90;97.30;;;;;;5031191;28;20674;-88
2024/01/23 07:42:03;;;;;;;0.90;0.80;;;4.90;97.30;;;;;;5013335;28;20212;-88
2024/01/23 07:44:32;;;;;;;0.90;0.80;;;4.90;97.30;;;;;;5011212;28;20228;-88
2024/01/23 07:46:58;;;;;;;1.10;1.00;;;5.00;97.30;;;;;;5010655;28;21005;-88
2024/01/23 07:49:23;;;;;;;1.10;1.00;;;5.00;97.30;;;;;;5008396;28;20416;-88
2024/01/23 07:51:50;;;;;;;1.00;0.90;;;5.00;97.30;;;;;;5010344;28;21016;-88
2024/01/23 07:54:16;;;;;;;1.10;1.00;;;5.10;97.30;;;;;;5010218;28;20216;-88
2024/01/23 07:56:42;;;;;;;1.00;0.90;;;5.10;97.30;;;;;;5008612;28;20753;-88
2024/01/23 07:59:08;;;;;;;1.23;1.13;;;5.10;97.30;;;;;;5010306;28;20408;-88
2024/01/23 08:01:34;;;;;;;1.10;1.00;;;5.10;97.30;;;;;;5010772;28;20284;-88
2024/01/23 08:03:59;;;;;;;1.00;0.90;;;5.20;97.30;;;;;;5011294;28;20555;-88
2024/01/23 08:06:25;;;;;;;17.40;1.37;;;5.20;97.30;;;;;;5009551;28;20580;-87
2024/01/23 08:08:51;;;;;;;2.40;1.73;;;5.20;97.30;;;;;;5011912;28;20181;-87
2024/01/23 08:11:17;;;;;;;1.20;1.10;;;5.20;97.30;;;;;;5010346;28;20618;-85
2024/01/23 08:13:43;;;;;;;3.57;1.43;;;5.20;97.30;;;;;;5010136;28;20925;-86
2024/01/23 08:16:09;;;;;;;0.97;0.87;;;5.20;97.30;;;;;;5006061;28;20428;-87
2024/01/23 08:18:36;;;;;;;1.27;1.17;;;5.30;97.30;;;;;;5011278;28;20200;-87
2024/01/23 08:21:02;;;;;;;1.10;1.00;;;5.30;97.30;;;;;;5009459;28;20853;-87
2024/01/23 08:23:28;;;;;;;4.43;2.60;;;5.30;97.30;;;;;;5009379;28;20435;-87
2024/01/23 08:25:54;;;;;;;1.00;0.90;;;5.30;97.30;;;;;;5009906;28;20455;-86
2024/01/23 08:28:19;;;;;;;1.00;0.90;;;5.40;97.30;;;;;;5010021;28;20535;-86
2024/01/23 08:30:45;;;;;;;1.27;1.17;;;5.40;97.30;;;;;;5015515;28;20753;-87
2024/01/23 08:33:17;;;;;;;1.20;1.10;;;5.40;97.30;;;;;;5013146;28;20216;-86
2024/01/23 08:35:42;;;;;;;1.10;1.00;;;5.40;97.30;;;;;;5004176;28;20192;-86
2024/01/23 08:38:09;;;;;;;1.00;0.90;;;5.40;97.30;;;;;;5010004;28;20420;-86
2024/01/23 08:40:34;;;;;;;0.87;0.77;;;5.50;97.30;;;;;;5010048;28;20186;-87
2024/01/23 08:43:00;;;;;;;1.37;1.27;;;5.50;97.30;;;;;;5011792;28;20431;-87
2024/01/23 08:45:25;;;;;;;1.17;1.07;;;5.50;97.30;;;;;;5009526;28;20770;-88
2024/01/23 08:47:51;;;;;;;1.20;1.10;;;5.50;97.30;;;;;;5010493;28;20201;-88
2024/01/23 08:50:16;;;;;;;1.63;1.23;;;5.60;97.30;;;;;;5008965;28;20284;-89
2024/01/23 08:52:43;;;;;;;1.83;1.73;;;5.60;97.30;;;;;;5009357;28;20220;-87
2024/01/23 08:55:09;;;;;;;1.00;0.90;;;5.60;97.30;;;;;;5009529;28;20181;-88
2024/01/23 08:57:35;;;;;;;1.40;1.30;;;5.60;97.30;;;;;;5011606;28;20439;-88
2024/01/23 09:00:00;;;;;;;1.00;0.90;;;5.60;97.30;;;;;;5009969;28;20428;-88
2024/01/23 09:02:27;;;;;;;1.07;0.97;;;5.70;97.30;;;;;;5011434;28;20208;-87
2024/01/23 09:04:52;;;;;;;1.07;0.97;;;5.70;97.30;;;;;;5013122;28;20189;-87
2024/01/23 09:07:18;;;;;;;3.23;1.67;;;5.70;97.30;;;;;;5013331;28;20451;-86
2024/01/23 09:09:44;;;;;;;0.90;0.80;;;5.70;97.30;;;;;;5011782;28;20189;-88
2024/01/23 09:12:10;;;;;;;1.00;0.90;;;5.80;97.30;;;;;;5011069;28;20470;-87
2024/01/23 09:14:35;;;;;;;1.27;1.17;;;5.80;97.30;;;;;;5011414;28;20251;-88
2024/01/23 09:17:01;;;;;;;0.80;0.70;;;5.80;97.30;;;;;;5009451;28;20478;-87
2024/01/23 09:19:27;;;;;;;2.90;1.00;;;5.90;97.30;;;;;;5012769;28;20238;-87
2024/01/23 09:21:54;;;;;;;1.83;1.73;;;5.90;97.30;;;;;;5012698;28;20701;-87
2024/01/23 09:24:20;;;;;;;0.80;0.70;;;5.90;97.30;;;;;;5012962;28;20871;-86
2024/01/23 09:26:45;;;;;;;1.10;1.00;;;6.00;97.30;;;;;;5009964;28;20464;-85
2024/01/23 09:29:11;;;;;;;1.27;1.00;;;6.00;97.30;;;;;;5015130;28;20227;-86
2024/01/23 09:31:46;;;;;;;1.63;1.10;;;6.00;97.30;;;;;;5012747;28;20253;-87
2024/01/23 09:34:12;;;;;;;1.00;0.90;;;6.10;97.30;;;;;;5009703;28;20188;-90
2024/01/23 09:36:38;;;;;;;0.90;0.80;;;6.10;97.30;;;;;;5013128;28;21012;-88
2024/01/23 09:39:04;;;;;;;0.93;0.83;;;6.10;97.30;;;;;;5016213;28;20432;-87
2024/01/23 09:41:33;;;;;;;1.10;1.00;;;6.20;97.30;;;;;;5015675;28;20208;-88
2024/01/23 09:43:59;;;;;;;0.90;0.80;;;6.20;97.30;;;;;;5014771;28;20214;-87
2024/01/23 09:46:24;;;;;;;1.73;1.63;;;6.30;97.30;;;;;;5015575;28;20470;-87
2024/01/23 09:48:50;;;;;;;1.80;1.73;;;6.40;97.30;;;;;;5015981;28;20220;-87
2024/01/23 09:51:16;;;;;;;1.00;0.90;;;6.40;97.30;;;;;;5014381;28;20204;-87
2024/01/23 09:53:43;;;;;;;9.00;1.03;;;6.40;97.30;;;;;;5014276;28;20424;-88
2024/01/23 09:56:10;;;;;;;0.90;0.80;;;6.50;97.30;;;;;;5013180;28;20420;-88
2024/01/23 09:58:36;;;;;;;0.90;0.80;;;6.50;97.30;;;;;;5014188;28;20458;-88
2024/01/23 10:01:02;;;;;;;5.57;1.00;;;6.50;97.30;;;;;;5012647;28;20497;-87
2024/01/23 10:03:31;;;;;;;1.00;0.90;;;6.60;97.30;;;;;;5014949;28;20415;-87
2024/01/23 10:05:56;;;;;;;1.27;1.17;;;6.60;97.30;;;;;;5015330;28;20530;-88
2024/01/23 10:08:25;;;;;;;1.67;1.57;;;6.60;97.30;;;;;;5013497;28;20506;-89
2024/01/23 10:11:00;;;;;;;1.63;1.53;;;6.60;97.30;;;;;;5013972;28;20204;-88
2024/01/23 10:13:27;;;;;;;2.07;1.93;;;6.70;97.30;;;;;;5012354;28;20469;-88
2024/01/23 10:15:56;;;;;;;1.10;1.10;;;6.70;97.30;;;;;;5014149;28;20416;-89
2024/01/23 10:18:22;;;;;;;1.00;0.90;;;6.70;97.30;;;;;;5014891;28;20452;-87
2024/01/23 10:20:48;;;;;;;1.20;1.10;;;6.70;97.30;;;;;;5013491;28;20447;-86
2024/01/23 10:23:14;;;;;;;1.10;1.00;;;6.70;97.30;;;;;;5013552;28;20439;-87
2024/01/23 10:25:40;;;;;;;11.00;1.53;;;6.80;97.30;;;;;;5021597;28;20460;-86
2024/01/23 10:28:08;;;;;;;1.27;1.17;;;6.80;97.30;;;;;;5019404;28;20929;-87
2024/01/23 10:30:36;;;;;;;1.00;0.90;;;6.90;97.30;;;;;;5013504;28;20422;-88
2024/01/23 10:33:03;;;;;;;1.10;1.00;;;6.90;97.30;;;;;;5013298;28;20432;-88
2024/01/23 10:35:33;;;;;;;4.97;2.30;;;6.90;97.30;;;;;;5014280;28;20953;-87
2024/01/23 10:38:00;;;;;;;0.90;0.80;;;6.90;97.30;;;;;;5012849;28;20909;-88
2024/01/23 10:40:26;;;;;;;1.30;1.20;;;6.90;97.30;;;;;;5013217;28;20434;-87
2024/01/23 10:42:52;;;;;;;4.83;1.37;;;6.90;97.30;;;;;;5011755;28;20512;-87
2024/01/23 10:45:18;;;;;;;1.07;1.00;;;6.90;97.30;;;;;;5026581;28;20200;-88
2024/01/23 10:47:45;;;;;;;1.30;1.20;;;6.90;97.30;;;;;;5022309;28;20513;-87
2024/01/23 10:50:11;;;;;;;1.03;1.03;;;6.90;97.30;;;;;;5020934;28;20873;-89
2024/01/23 10:52:39;;;;;;;1.27;1.17;;;6.90;97.30;;;;;;5022476;28;20447;-89
2024/01/23 10:55:06;;;;;;;1.10;1.00;;;6.90;97.30;;;;;;5030439;28;20732;-88
2024/01/23 10:57:36;;;;;;;1.10;1.00;;;6.90;97.30;;;;;;5012425;28;20852;-88
2024/01/23 11:00:04;;;;;;;1.00;1.00;;;7.00;97.30;;;;;;5013164;28;20432;-87
2024/01/23 11:02:40;;;;;;;1.00;0.90;;;7.00;97.30;;;;;;5011075;28;20936;-87
2024/01/23 11:05:06;;;;;;;1.53;1.43;;;7.00;97.30;;;;;;5012000;28;20515;-87
2024/01/23 11:07:46;;;;;;;1.43;1.37;;;7.00;97.30;;;;;;5012548;28;20487;-88
2024/01/23 11:10:12;;;;;;;1.13;1.03;;;7.00;97.30;;;;;;5013220;28;20798;-86
2024/01/23 11:12:53;;;;;;;1.10;1.00;;;7.10;97.30;;;;;;5020170;28;20451;-87
2024/01/23 11:15:19;;;;;;;1.73;1.60;;;7.10;97.30;;;;;;5011869;28;20270;-88
2024/01/23 11:17:45;;;;;;;1.00;0.90;;;7.20;97.30;;;;;;5011686;28;20522;-88
2024/01/23 11:20:15;;;;;;;1.67;1.57;;;7.10;97.30;;;;;;5012228;28;20471;-88
2024/01/23 11:22:44;;;;;;;1.17;0.90;;;7.10;97.30;;;;;;5003842;28;20205;-87
2024/01/23 11:25:10;;;;;;;1.43;1.33;;;7.10;97.30;;;;;;5011712;28;20467;-89
2024/01/23 11:27:38;;;;;;;1.90;1.80;;;7.10;97.30;;;;;;5011756;28;20508;-88
2024/01/23 11:30:07;;;;;;;19.93;2.50;;;7.10;97.30;;;;;;5013490;28;20443;-88
2024/01/23 11:32:32;;;;;;;1.70;1.63;;;7.10;97.30;;;;;;5011367;28;20455;-88
2024/01/23 11:35:03;;;;;;;21.33;2.70;;;7.10;97.30;;;;;;5011415;28;20427;-88
2024/01/23 11:37:31;;;;;;;1.73;1.63;;;7.10;97.30;;;;;;5012126;28;20184;-88
2024/01/23 11:39:59;;;;;;;1.13;1.03;;;7.10;97.30;;;;;;5011474;28;20514;-88
2024/01/23 11:42:37;;;;;;;0.90;0.80;;;7.10;97.30;;;;;;5011454;28;20829;-85
2024/01/23 11:45:22;;;;;;;1.20;1.10;;;7.10;97.30;;;;;;5011142;28;20945;-88
2024/01/23 11:47:53;;;;;;;1.40;1.30;;;7.10;97.30;;;;;;5003931;28;21012;-88
2024/01/23 11:50:19;;;;;;;1.10;1.00;;;7.10;97.30;;;;;;5010658;28;20420;-87
2024/01/23 11:52:52;;;;;;;4.53;3.53;;;7.20;97.30;;;;;;5011308;28;20493;-87
2024/01/23 11:55:19;;;;;;;2.30;2.10;;;7.20;97.30;;;;;;5012393;28;20506;-86
2024/01/23 11:57:46;;;;;;;1.53;1.13;;;7.20;97.30;;;;;;5010937;28;20412;-87
2024/01/23 12:00:12;;;;;;;1.37;1.27;;;7.20;97.30;;;;;;5011560;28;20503;-88
2024/01/23 12:02:39;;;;;;;6.67;1.67;;;7.30;97.30;;;;;;5010742;28;20444;-88
2024/01/23 12:05:05;;;;;;;17.23;2.73;;;7.30;97.30;;;;;;5018256;28;20975;-88
2024/01/23 12:07:30;;;;;;;1.53;1.43;;;7.40;97.30;;;;;;5010747;28;20483;-88
2024/01/23 12:09:56;;;;;;;1.10;1.00;;;7.50;97.30;;;;;;5009404;28;20264;-87
2024/01/23 12:12:21;;;;;;;1.77;1.67;;;7.50;97.30;;;;;;5018554;28;20287;-87
2024/01/23 12:14:47;;;;;;;1.37;1.27;;;7.60;97.30;;;;;;5023017;28;20298;-87
2024/01/23 12:17:12;;;;;;;1.67;1.57;;;8.00;97.30;;;;;;5021997;28;20292;-88
2024/01/23 12:19:46;;;;;;;1.00;0.90;;;8.40;97.30;;;;;;5022840;28;20196;-88
2024/01/23 12:22:12;;;;;;;1.10;1.00;;;8.30;97.30;;;;;;5014685;28;20717;-88
2024/01/23 12:24:38;;;;;;;1.23;1.13;;;8.30;97.30;;;;;;5026542;28;20444;-87
2024/01/23 12:27:04;;;;;;;2.90;2.70;;;8.20;97.30;;;;;;5024904;28;20875;-88
2024/01/23 12:29:30;;;;;;;1.93;1.53;;;8.20;97.30;;;;;;5011752;28;20181;-88
2024/01/23 12:31:59;;;;;;;1.00;0.90;;;8.20;97.30;;;;;;5010331;28;20498;-87
2024/01/23 12:34:24;;;;;;;1.50;1.40;;;8.40;97.30;;;;;;5018583;28;20567;-88
2024/01/23 12:36:50;;;;;;;9.87;2.10;;;8.50;97.30;;;;;;5018038;28;20424;-88
2024/01/23 12:39:17;;;;;;;1.33;1.23;;;8.60;97.30;;;;;;5017708;28;20188;-88
2024/01/23 12:41:43;;;;;;;2.30;1.10;;;8.60;97.30;;;;;;5017230;28;20287;-87
2024/01/23 12:44:08;;;;;;;1.27;1.17;;;8.80;97.30;;;;;;5022476;28;20783;-88
2024/01/23 12:46:34;;;;;;;5.23;1.33;;;9.20;97.30;;;;;;5017704;28;20496;-88
2024/01/23 12:49:06;;;;;;;2.30;2.10;;;8.90;97.30;;;;;;5015225;28;20185;-88
2024/01/23 12:51:32;;;;;;;1.27;1.20;;;9.00;97.30;;;;;;5012569;28;20200;-88
2024/01/23 12:53:58;;;;;;;2.23;1.20;;;9.30;97.30;;;;;;5014568;28;20426;-88
2024/01/23 12:56:23;;;;;;;2.93;2.60;;;9.40;96.40;;;;;;5012425;28;20181;-85
2024/01/23 12:58:52;;;;;;;3.00;2.03;;;9.30;96.30;;;;;;5010966;28;20189;-88
2024/01/23 13:01:18;;;;;;;7.60;3.37;;;9.60;96.60;;;;;;5010062;28;20258;-86
2024/01/23 13:03:45;;;;;;;2.47;2.27;;;9.60;95.80;;;;;;5012486;28;20438;-88
2024/01/23 13:06:11;;;;;;;3.30;3.10;;;9.30;96.20;;;;;;5014483;28;20212;-88
2024/01/23 13:08:36;;;;;;;4.93;2.43;;;9.40;96.40;;;;;;5010728;28;20465;-87
2024/01/23 13:11:03;;;;;;;43.87;2.30;;;9.10;96.10;;;;;;5016992;28;20626;-87
2024/01/23 13:13:29;;;;;;;0.90;0.80;;;9.10;96.70;;;;;;5021473;28;20650;-88
2024/01/23 13:15:54;;;;;;;1.13;1.03;;;9.00;96.50;;;;;;5017374;28;20432;-88
2024/01/23 13:18:21;;;;;;;2.13;1.97;;;8.70;97.30;;;;;;5009887;28;20590;-87
2024/01/23 13:20:47;;;;;;;4.00;2.93;;;8.60;97.30;;;;;;5016854;28;20204;-88
2024/01/23 13:23:12;;;;;;;21.73;2.90;;;8.50;97.30;;;;;;5017078;28;20784;-87
2024/01/23 13:25:39;;;;;;;1.00;0.90;;;8.40;97.30;;;;;;5009866;28;20450;-86
2024/01/23 13:28:05;;;;;;;1.50;1.40;;;8.30;97.30;;;;;;5015917;28;20268;-87
2024/01/23 13:30:31;;;;;;;1.00;1.00;;;8.30;97.30;;;;;;5016733;28;20500;-87
2024/01/23 13:32:57;;;;;;;1.70;1.27;;;8.20;97.30;;;;;;5027223;28;20287;-88
2024/01/23 13:35:22;;;;;;;1.53;1.43;;;8.20;97.30;;;;;;5019263;28;20510;-87
2024/01/23 13:37:49;;;;;;;2.77;1.93;;;8.10;97.30;;;;;;5021275;28;20180;-87
2024/01/23 13:40:16;;;;;;;3.00;2.20;;;8.10;97.30;;;;;;5020312;28;20188;-88
2024/01/23 13:42:42;;;;;;;8.07;2.87;;;8.10;97.30;;;;;;5009376;28;20602;-87
2024/01/23 13:45:09;;;;;;;0.90;0.80;;;8.00;97.30;;;;;;5022574;28;20870;-88
2024/01/23 13:47:35;;;;;;;3.27;2.40;;;8.00;97.30;;;;;;5012674;28;20472;-87
2024/01/23 13:50:04;;;;;;;1.00;0.90;;;8.00;97.30;;;;;;5016199;28;20423;-87
2024/01/23 13:52:30;;;;;;;3.63;1.80;;;8.00;97.30;;;;;;5010289;28;20864;-87
2024/01/23 13:54:56;;;;;;;1.73;1.63;;;7.90;97.30;;;;;;5009061;28;20412;-88
2024/01/23 13:57:21;;;;;;;6.93;1.10;;;7.90;97.30;;;;;;5009023;28;20204;-87
2024/01/23 13:59:47;;;;;;;3.70;1.93;;;7.90;97.30;;;;;;5016045;28;20189;-88
2024/01/23 14:02:15;;;;;;;1.00;0.90;;;7.80;97.30;;;;;;5009369;28;20197;-88
2024/01/23 14:04:40;;;;;;;1.30;1.20;;;7.80;97.30;;;;;;5010707;28;20189;-88
2024/01/23 14:07:07;;;;;;;1.30;1.20;;;7.80;97.30;;;;;;5019198;28;20596;-88
2024/01/23 14:09:33;;;;;;;1.00;0.90;;;7.90;97.30;;;;;;5024980;28;20173;-87
2024/01/23 14:11:58;;;;;;;2.07;1.10;;;7.90;97.30;;;;;;5016194;28;20956;-87
2024/01/23 14:14:24;;;;;;;2.03;1.30;;;8.00;97.30;;;;;;5016320;28;20416;-87
2024/01/23 14:16:50;;;;;;;1.43;1.33;;;7.90;97.30;;;;;;5061358;23;20263;-90
2024/01/23 14:19:15;;;;;;;1.40;1.30;;;7.90;97.30;;;;;;5020653;28;20188;-88
2024/01/23 14:21:43;;;;;;;1.67;1.30;;;8.00;97.30;;;;;;5018098;28;20185;-88
2024/01/23 14:24:08;;;;;;;4.90;2.37;;;8.00;97.30;;;;;;5023886;28;20182;-90
2024/01/23 14:26:34;;;;;;;1.97;1.87;;;8.00;97.30;;;;;;5025419;28;20688;-90
2024/01/23 14:28:59;;;;;;;2.03;1.90;;;7.90;97.30;;;;;;5006041;28;20201;-90
2024/01/23 14:31:25;;;;;;;1.43;1.20;;;7.90;97.30;;;;;;5016193;28;20181;-88
2024/01/23 14:33:51;;;;;;;3.80;2.20;;;8.00;97.30;;;;;;5004376;28;20316;-89
2024/01/23 14:36:17;;;;;;;1.00;0.90;;;8.10;97.30;;;;;;5008159;28;20420;-90
2024/01/23 14:38:43;;;;;;;1.00;0.90;;;8.10;97.30;;;;;;5005338;28;20245;-90
2024/01/23 14:41:08;;;;;;;1.10;1.00;;;8.00;97.30;;;;;;5005960;28;20455;-89
2024/01/23 14:43:34;;;;;;;1.20;1.20;;;7.90;97.30;;;;;;5008550;28;20221;-89
2024/01/23 14:46:00;;;;;;;1.10;1.00;;;7.80;97.30;;;;;;5000308;28;20190;-90
2024/01/23 14:48:26;;;;;;;1.40;1.30;;;7.80;97.30;;;;;;5007859;28;20208;-89
2024/01/23 14:50:51;;;;;;;1.00;0.90;;;7.70;97.30;;;;;;5002616;28;20444;-90
2024/01/23 14:53:22;;;;;;;1.10;1.00;;;7.70;97.30;;;;;;4995506;28;20182;-90
2024/01/23 14:55:47;;;;;;;2.03;1.90;;;7.60;97.30;;;;;;4995082;28;20178;-90
2024/01/23 14:58:13;;;;;;;3.47;2.70;;;7.50;97.30;;;;;;4996309;28;20451;-89
2024/01/23 15:00:41;;;;;;;1.30;1.20;;;7.50;97.30;;;;;;5007545;28;20180;-90
2024/01/23 15:03:07;;;;;;;1.00;0.90;;;7.50;97.30;;;;;;5008013;28;20424;-90
2024/01/23 15:05:32;;;;;;;1.30;1.20;;;7.40;97.30;;;;;;4998937;28;20425;-91
2024/01/23 15:07:58;;;;;;;1.10;1.00;;;7.30;97.30;;;;;;5001980;28;20485;-90
2024/01/23 15:10:23;;;;;;;6.17;1.53;;;7.30;97.30;;;;;;5008512;28;20181;-91
2024/01/23 15:12:49;;;;;;;2.00;1.17;;;7.30;97.30;;;;;;5009104;28;20201;-89
2024/01/23 15:15:14;;;;;;;2.67;2.47;;;7.20;97.30;;;;;;5005024;28;20413;-90
2024/01/23 15:17:40;;;;;;;2.13;1.97;;;7.20;97.30;;;;;;4998169;28;20240;-90
2024/01/23 15:20:06;;;;;;;1.23;1.13;;;7.20;97.30;;;;;;5011284;28;20196;-88
2024/01/23 15:22:31;;;;;;;1.00;0.90;;;7.10;97.30;;;;;;5000710;28;20251;-88
2024/01/23 15:24:57;;;;;;;0.90;0.80;;;7.10;97.30;;;;;;5008635;28;20529;-90
2024/01/23 15:27:22;;;;;;;1.20;1.10;;;7.10;97.30;;;;;;5008696;28;20305;-90
2024/01/23 15:29:48;;;;;;;2.03;1.87;;;7.10;97.30;;;;;;5007988;28;20197;-89
2024/01/23 15:32:13;;;;;;;1.53;1.40;;;7.10;97.30;;;;;;5007550;28;20231;-90
2024/01/23 15:34:39;;;;;;;4.63;2.40;;;7.00;97.30;;;;;;5006694;28;20178;-91
2024/01/23 15:37:05;;;;;;;14.27;3.47;;;7.00;97.30;;;;;;4996006;28;20251;-91
2024/01/23 15:39:32;;;;;;;5.50;2.33;;;7.00;97.30;;;;;;5005322;28;20564;-89
2024/01/23 15:41:58;;;;;;;1.50;1.40;;;6.90;97.30;;;;;;5014226;28;20205;-89
2024/01/23 15:44:24;;;;;;;3.30;3.10;;;6.90;97.30;;;;;;5007831;28;20416;-91
2024/01/23 15:46:49;;;;;;;0.90;0.90;;;6.90;97.30;;;;;;4997404;28;20706;-90
2024/01/23 15:49:15;;;;;;;1.30;1.20;;;6.90;97.30;;;;;;4995124;28;20554;-90
2024/01/23 15:51:40;;;;;;;9.20;2.83;;;6.90;97.30;;;;;;5010328;28;20209;-91
2024/01/23 15:54:06;;;;;;;1.50;1.40;;;6.90;97.30;;;;;;5015393;28;20184;-89
2024/01/23 15:56:32;;;;;;;1.70;1.60;;;6.90;97.30;;;;;;5012981;28;20269;-88
2024/01/23 15:58:57;;;;;;;1.00;0.90;;;6.90;97.30;;;;;;5025188;28;20248;-89
2024/01/23 16:01:24;;;;;;;1.20;1.10;;;6.90;97.30;;;;;;5036692;28;20216;-89
2024/01/23 16:03:53;;;;;;;2.80;1.63;;;6.90;97.30;;;;;;5021235;28;20189;-90
2024/01/23 16:06:19;;;;;;;2.17;2.00;;;6.90;97.30;;;;;;5011649;28;20475;-89
2024/01/23 16:08:45;;;;;;;1.10;1.00;;;6.90;97.30;;;;;;5017454;28;20417;-91
2024/01/23 16:11:10;;;;;;;2.50;2.30;;;6.90;97.30;;;;;;5006367;28;20181;-91
2024/01/23 16:13:36;;;;;;;8.53;2.60;;;6.90;97.30;;;;;;5009446;28;20257;-89
2024/01/23 16:16:02;;;;;;;4.53;1.20;;;6.90;97.30;;;;;;5018166;28;20178;-89
2024/01/23 16:18:28;;;;;;;1.40;1.23;;;6.90;97.30;;;;;;5014752;28;20260;-91
2024/01/23 16:20:54;;;;;;;7.23;2.20;;;6.90;97.30;;;;;;5011823;28;20431;-90
2024/01/23 16:23:19;;;;;;;1.93;1.83;;;6.80;97.30;;;;;;5016201;28;20436;-91
2024/01/23 16:25:45;;;;;;;1.73;1.63;;;6.80;97.30;;;;;;5008784;28;20181;-88
2024/01/23 16:28:11;;;;;;;1.17;1.07;;;6.80;97.30;;;;;;5017135;28;20201;-90
2024/01/23 16:30:36;;;;;;;1.67;1.57;;;6.70;97.30;;;;;;5017772;28;20292;-90
2024/01/23 16:33:02;;;;;;;1.10;1.00;;;6.70;97.30;;;;;;5009060;28;20189;-90
2024/01/23 16:35:27;;;;;;;1.40;1.30;;;6.60;97.30;;;;;;5011968;28;20181;-91
2024/01/23 16:37:53;;;;;;;1.37;1.27;;;6.60;97.30;;;;;;5006690;28;20210;-88
2024/01/23 16:40:18;;;;;;;1.00;0.90;;;6.60;97.30;;;;;;5002361;28;20260;-90
2024/01/23 16:42:44;;;;;;;1.63;1.53;;;6.50;97.30;;;;;;5011886;28;20186;-90
2024/01/23 16:45:12;;;;;;;3.37;1.47;;;6.50;97.30;;;;;;5014733;28;20243;-90
2024/01/23 16:47:37;;;;;;;1.23;1.13;;;6.50;97.30;;;;;;5016335;28;20529;-89
2024/01/23 16:50:04;;;;;;;1.33;1.23;;;6.40;97.30;;;;;;5003182;28;20516;-88
2024/01/23 16:52:30;;;;;;;1.00;0.90;;;6.40;97.30;;;;;;4991540;28;20199;-89
2024/01/23 16:54:55;;;;;;;1.00;0.90;;;6.40;97.30;;;;;;5017508;28;20435;-90
2024/01/23 16:57:22;;;;;;;1.30;1.20;;;6.40;97.30;;;;;;5008508;28;20220;-89
2024/01/23 16:59:48;;;;;;;1.87;1.67;;;6.30;97.30;;;;;;5005665;28;20248;-90
2024/01/23 17:02:13;;;;;;;1.50;1.40;;;6.30;97.30;;;;;;4996735;28;20463;-89
2024/01/23 17:04:39;;;;;;;1.80;1.70;;;6.30;97.30;;;;;;4998574;28;20181;-88
2024/01/23 17:07:05;;;;;;;16.07;1.87;;;6.30;97.30;;;;;;5002394;28;20604;-89
2024/01/23 17:09:31;;;;;;;1.10;1.00;;;6.30;97.30;;;;;;4998194;28;20209;-89
2024/01/23 17:11:56;;;;;;;1.40;1.30;;;6.30;97.30;;;;;;5004435;28;20425;-88
2024/01/23 17:14:25;;;;;;;2.37;2.17;;;6.20;97.30;;;;;;5009855;28;20191;-90
2024/01/23 17:16:50;;;;;;;1.67;1.57;;;6.20;97.30;;;;;;5008573;28;20244;-90
2024/01/23 17:19:16;;;;;;;1.80;1.70;;;6.20;97.30;;;;;;5006628;28;20730;-90
2024/01/23 17:21:41;;;;;;;2.50;2.30;;;6.20;97.30;;;;;;4995527;28;20186;-91
2024/01/23 17:24:07;;;;;;;1.70;1.60;;;6.20;97.30;;;;;;5000745;28;20186;-89
2024/01/23 17:26:36;;;;;;;1.47;1.40;;;6.20;97.30;;;;;;5007636;28;20205;-89
2024/01/23 17:29:01;;;;;;;1.00;0.90;;;6.10;97.30;;;;;;4997559;28;20436;-91
2024/01/23 17:31:27;;;;;;;22.80;2.17;;;6.10;97.30;;;;;;5004586;28;20418;-90
2024/01/23 17:34:01;;;;;;;1.40;1.30;;;6.10;97.30;;;;;;4998030;28;20201;-90
2024/01/23 17:36:27;;;;;;;2.50;1.77;;;6.10;97.30;;;;;;5018051;28;20187;-90
2024/01/23 17:38:53;;;;;;;1.30;1.20;;;6.00;97.30;;;;;;5016805;28;20459;-89
2024/01/23 17:41:18;;;;;;;3.83;1.30;;;6.00;97.30;;;;;;5004605;28;20440;-91
2024/01/23 17:43:46;;;;;;;7.30;1.30;;;5.90;97.30;;;;;;4995671;28;20269;-89
2024/01/23 17:46:14;;;;;;;6.03;2.23;;;5.90;97.30;;;;;;5000388;28;20241;-90
2024/01/23 17:48:39;;;;;;;21.43;4.90;;;5.90;97.30;;;;;;5000688;28;20416;-90
2024/01/23 17:51:05;;;;;;;6.20;1.60;;;5.90;97.30;;;;;;5005124;28;20443;-90
2024/01/23 17:53:31;;;;;;;1.73;1.70;;;5.90;97.30;;;;;;5007573;28;20241;-88